Pagina principale
METAR-TAF:

METAR-TAF

Aeroporti :

Orange, Francia

latitudine: 44-08N, longitudine: 004-50E, altezza: 60 m

Osservazione

Il bollettino è stato emesso 20 minuti fa, alle 06:30 UTC
Vento 10 kt da nord
Temperature 4°C
Umidità 87%
Pressione 1010 hPa
Visibilità 10 km o più
nessuna nube inferiore a 1500 m e nessun cumulonembo

METAR: LFMO 180630Z AUTO 35010KT CAVOK 04/02 Q1010 NOSIG

Ora: 07:50 (06:50 UTC)

Previsione

Il bollettino è stato emesso 4 ore e 50 minuti fa, alle 02:00 UTC
Previsione valida dal 18 alle 03 UTC al 19 alle 03 UTC
Vento 2 kt da direzioni variabili
Visibilità: 6000 m
Evoluzione graduale
dal 18 alle 08 UTC al 18 alle 10 UTC
Visibilità 10 km o più
nessuna nube inferiore a 1500 m e nessun cumulonembo

TAF: LFMO 180200Z 1803/1903 VRB02KT 6000 NSC BECMG 1808/1810 CAVOK

Osservazioni e previsioni meteorologiche di più di 4000 aeroporti (messaggi METAR e TAF).

Le stazioni disponibili sono rappresentate dai dischi gialli e rossi sulla carta.

Puntare il mouse per vedere il nome della stazione.

Clicca sopra per visualizzare le osservazioni e previsioni meteorologiche.

Per cambiare la mappa : fare clic sui pulsanti verdi con una croce nera per ingrandire, il pulsante verde con un trattino per diminuire, o sulla freccia verde per le mappe adiacenti.


METAR-TAF: